Aransas Pass — WDF5061 — position and weather

sailwx.info

Track history (hours):
 
Tides and Currents Weather Stations Pressure Air Temp Water Temp Dewpoint Dewpoint Depression Visibility Wind Speed Wind Dir Waves Ship Positions

Aransas Pass

Owner: Higman Barge Lines, Inc., Orange, TX. More information available from US FCC via Universal Licensing System and Coast Guard Vessel Documentation Center.

Last reported at 2017-Feb-24 22:10 UTC. Time now 2017-Feb-25 20:39 UTC.
Position N 29°45' W 095°06'.

Length 26 m; draft 3 m.

Type: Towing. MMSI: 367458930.

Date/timePositionNaut miles runAvg speedWind from/ knotsBaromVisibWave heightAir tempDewpointWater temp
2017-Feb-24 22:10N 29°45' W 095°06'0 0.1
2017-Feb-24 21:33N 29°45' W 095°07'0 0.0
2017-Feb-24 20:29N 29°45' W 095°07'0 0.0
2017-Feb-24 18:06N 29°45' W 095°07'0 0.0
2017-Feb-24 15:26N 29°45' W 095°07'0 0.0
2017-Feb-24 14:13N 29°45' W 095°07'0 0.0
2017-Feb-24 13:27N 29°45' W 095°07'0 0.0
2017-Feb-23 18:07N 29°45' W 095°06'0 0.1
2017-Feb-23 17:33N 29°45' W 095°07'0 0.0
2017-Feb-23 16:30N 29°45' W 095°07'0 0.0
2017-Feb-23 15:26N 29°45' W 095°07'0 0.0
2017-Feb-23 14:33N 29°45' W 095°07'0 0.0
2017-Feb-23 13:30N 29°45' W 095°07'0 0.0
2017-Feb-23 11:26N 29°45' W 095°07'0 0.0
2017-Feb-23 10:18N 29°45' W 095°07'  
2017-Feb-20 17:20N 29°44' W 095°08'3 0.1
2017-Feb-18 18:32N 29°46' W 095°05'7 6.9
2017-Feb-18 17:32N 29°41' W 094°59'6 6.6
2017-Feb-18 16:33N 29°35' W 094°56'  
Track history (hours):
 
Tides and Currents Weather Stations Pressure Air Temp Water Temp Dewpoint Dewpoint Depression Visibility Wind Speed Wind Dir Waves Ship Positions

Aransas Pass

Owner: Higman Barge Lines, Inc., Orange, TX. More information available from US FCC via Universal Licensing System and Coast Guard Vessel Documentation Center.

Last reported at 2017-Feb-24 22:10 UTC. Time now 2017-Feb-25 20:39 UTC.
Position N 29°45' W 095°06'.

Length 26 m; draft 3 m.

Type: Towing. MMSI: 367458930.

Date/timePositionNaut miles runAvg speedWind from/ knotsBaromVisibWave heightAir tempDewpointWater temp
2017-Feb-24 22:10N 29°45' W 095°06'0 0.1
2017-Feb-24 21:33N 29°45' W 095°07'0 0.0
2017-Feb-24 20:29N 29°45' W 095°07'0 0.0
2017-Feb-24 18:06N 29°45' W 095°07'0 0.0
2017-Feb-24 15:26N 29°45' W 095°07'0 0.0
2017-Feb-24 14:13N 29°45' W 095°07'0 0.0
2017-Feb-24 13:27N 29°45' W 095°07'0 0.0
2017-Feb-23 18:07N 29°45' W 095°06'0 0.1
2017-Feb-23 17:33N 29°45' W 095°07'0 0.0
2017-Feb-23 16:30N 29°45' W 095°07'0 0.0
2017-Feb-23 15:26N 29°45' W 095°07'0 0.0
2017-Feb-23 14:33N 29°45' W 095°07'0 0.0
2017-Feb-23 13:30N 29°45' W 095°07'0 0.0
2017-Feb-23 11:26N 29°45' W 095°07'0 0.0
2017-Feb-23 10:18N 29°45' W 095°07'  
2017-Feb-20 17:20N 29°44' W 095°08'3 0.1
2017-Feb-18 18:32N 29°46' W 095°05'7 6.9
2017-Feb-18 17:32N 29°41' W 094°59'6 6.6
2017-Feb-18 16:33N 29°35' W 094°56'  

Dump ship's entire track history